Terminal Aerodrome Forecast
Issued by NWS

Home | Current Version | Previous Version | Text Only | Print | Product List | Glossary On
Versions: 1 2 3 4 5 6 7 8 9 10 11 12 13 14 15 16 17 18 19 20 21 22
794
FTUS43 KAPX 291028 AAB
TAFAPN
TAF AMD
KAPN 291028Z 2910/3006 16003KT P6SM -RA FEW070 OVC090
     FM291500 23010G18KT P6SM BKN025
     FM291700 24011G20KT P6SM BKN060
     FM292300 27009KT P6SM BKN060
     FM300400 26005KT P6SM BKN030=

USA.gov is the U.S. government's official web portal to all federal, state and local government web resources and services.